createdAt,value
2023-01-21T00:00:07.243Z,27.57
2023-01-21T00:02:34.231Z,26.00
2023-01-21T00:05:01.241Z,26.67
2023-01-21T00:07:28.166Z,27.57
2023-01-21T00:09:55.391Z,24.03
2023-01-21T00:12:22.572Z,29.33
2023-01-21T00:14:49.272Z,32.03
2023-01-21T00:17:16.015Z,28.67
2023-01-21T00:19:42.819Z,35.13
2023-01-21T00:22:09.626Z,31.77
2023-01-21T00:24:36.693Z,35.43
2023-01-21T00:27:03.685Z,34.93
2023-01-21T00:29:30.866Z,34.67
2023-01-21T00:32:01.842Z,35.43
2023-01-21T00:34:29.443Z,33.17
2023-01-21T00:36:56.714Z,32.10
2023-01-21T00:39:25.225Z,41.37
2023-01-21T00:41:51.998Z,39.80
2023-01-21T00:44:19.335Z,43.03
2023-01-21T00:46:46.045Z,37.40
2023-01-21T00:49:12.815Z,43.97
2023-01-21T00:51:39.570Z,43.83
2023-01-21T00:54:06.662Z,38.40
2023-01-21T00:56:33.647Z,48.43
2023-01-21T00:59:00.656Z,41.80
2023-01-21T01:01:30.429Z,38.07
2023-01-21T01:03:57.649Z,41.67
2023-01-21T01:06:24.895Z,46.70
2023-01-21T01:08:52.363Z,42.20
2023-01-21T01:11:21.632Z,41.17
2023-01-21T01:13:48.696Z,44.43
2023-01-21T01:16:17.585Z,41.63
2023-01-21T01:18:44.605Z,41.47
2023-01-21T01:21:17.015Z,44.10
2023-01-21T01:23:44.540Z,40.93
2023-01-21T01:26:14.319Z,43.90
2023-01-21T01:28:41.412Z,47.90
2023-01-21T01:31:11.349Z,41.10
2023-01-21T01:33:38.307Z,44.37
2023-01-21T01:36:12.472Z,47.27
2023-01-21T01:38:39.345Z,50.73
2023-01-21T01:41:06.591Z,49.83
2023-01-21T01:44:05.822Z,49.47
2023-01-21T01:46:35.544Z,54.43
2023-01-21T01:49:10.266Z,48.03
2023-01-21T01:51:57.335Z,50.23
2023-01-21T01:54:29.128Z,56.70
2023-01-21T01:56:58.279Z,48.70
2023-01-21T01:59:25.225Z,53.10
2023-01-21T02:01:52.068Z,56.60
2023-01-21T02:04:23.587Z,51.63
2023-01-21T02:06:52.545Z,52.20
2023-01-21T02:09:19.693Z,49.30
2023-01-21T02:11:46.462Z,51.80
2023-01-21T02:14:13.709Z,51.60
2023-01-21T02:17:09.001Z,50.40
2023-01-21T02:19:45.441Z,52.80
2023-01-21T02:22:19.870Z,52.73
2023-01-21T02:24:52.566Z,51.77
2023-01-21T02:27:37.075Z,59.90
2023-01-21T02:32:58.970Z,53.67
2023-01-21T02:35:39.381Z,53.27
2023-01-21T02:38:17.736Z,59.13
2023-01-21T02:41:20.919Z,57.20
2023-01-21T02:44:05.753Z,53.87
2023-01-21T02:46:42.756Z,56.43
2023-01-21T02:49:22.575Z,51.40
2023-01-21T02:51:49.803Z,50.60
2023-01-21T02:54:38.990Z,51.07
2023-01-21T02:57:20.433Z,35.07
2023-01-21T02:59:49.908Z,39.33
2023-01-21T03:02:38.728Z,39.07
2023-01-21T03:05:28.619Z,37.83
2023-01-21T03:08:02.614Z,42.37
2023-01-21T03:10:37.151Z,38.53
2023-01-21T03:13:07.563Z,33.83
2023-01-21T03:16:07.255Z,33.83
2023-01-21T03:18:46.029Z,32.97
2023-01-21T03:21:17.009Z,31.33
2023-01-21T03:23:47.419Z,34.30
2023-01-21T03:26:17.988Z,34.87
2023-01-21T03:28:48.445Z,32.87
2023-01-21T03:31:22.951Z,36.93
2023-01-21T03:33:52.540Z,37.17
2023-01-21T03:36:27.078Z,42.03
2023-01-21T03:38:56.135Z,37.90
2023-01-21T03:41:26.140Z,40.20
2023-01-21T03:43:52.758Z,43.30
2023-01-21T03:46:37.320Z,40.30
2023-01-21T03:49:07.247Z,40.00
2023-01-21T03:51:39.795Z,41.67
2023-01-21T03:54:06.544Z,42.63
2023-01-21T03:56:33.024Z,42.87
2023-01-21T03:58:59.542Z,53.47
2023-01-21T04:01:25.982Z,47.53
2023-01-21T04:03:52.872Z,50.77
2023-01-21T04:06:21.587Z,49.30
2023-01-21T04:08:54.569Z,45.67
2023-01-21T04:11:21.135Z,50.57
2023-01-21T04:13:47.479Z,47.13
2023-01-21T04:16:14.066Z,48.90
2023-01-21T04:18:40.541Z,52.17
2023-01-21T04:21:07.035Z,47.47
2023-01-21T04:23:33.549Z,49.40
2023-01-21T04:26:00.354Z,50.17
2023-01-21T04:28:26.836Z,53.33
2023-01-21T04:30:53.254Z,51.70
2023-01-21T04:33:19.711Z,53.23
2023-01-21T04:35:46.489Z,53.53
2023-01-21T04:38:13.811Z,46.23
2023-01-21T04:40:40.224Z,42.83
2023-01-21T04:43:07.227Z,48.13
2023-01-21T04:45:34.051Z,41.77
2023-01-21T04:48:00.537Z,48.27
2023-01-21T04:50:26.992Z,42.70
2023-01-21T04:52:53.601Z,40.17
2023-01-21T04:55:20.261Z,37.00
2023-01-21T04:57:46.628Z,36.73
2023-01-21T05:00:13.388Z,36.50
2023-01-21T05:02:39.853Z,37.83
2023-01-21T05:05:11.628Z,32.07
2023-01-21T05:07:38.069Z,35.60
2023-01-21T05:10:05.088Z,37.43
2023-01-21T05:12:32.065Z,33.07
2023-01-21T05:14:58.461Z,39.80
2023-01-21T05:17:25.466Z,40.27
2023-01-21T05:19:51.985Z,35.60
2023-01-21T05:22:25.546Z,37.67
2023-01-21T05:24:52.008Z,38.57
2023-01-21T05:27:19.909Z,36.90
2023-01-21T05:29:46.361Z,40.03
2023-01-21T05:32:12.936Z,41.67
2023-01-21T05:34:39.436Z,43.37
2023-01-21T05:37:06.059Z,47.00
2023-01-21T05:39:32.834Z,54.20
2023-01-21T05:41:59.299Z,50.97
2023-01-21T05:44:25.706Z,48.03
2023-01-21T05:46:52.518Z,50.50
2023-01-21T05:49:19.648Z,47.47
2023-01-21T05:51:46.209Z,54.17
2023-01-21T05:54:13.042Z,51.30
2023-01-21T05:56:39.510Z,47.60
2023-01-21T05:59:06.026Z,49.17
2023-01-21T06:01:32.510Z,56.13
2023-01-21T06:03:58.960Z,48.80
2023-01-21T06:06:25.322Z,61.23
2023-01-21T06:08:51.782Z,56.77
2023-01-21T06:11:18.199Z,50.57
2023-01-21T06:13:44.831Z,58.87
2023-01-21T06:16:11.323Z,55.13
2023-01-21T06:18:37.866Z,60.83
2023-01-21T06:21:04.508Z,58.60
2023-01-21T06:23:30.924Z,64.43
2023-01-21T06:26:01.574Z,64.67
2023-01-21T06:28:29.245Z,57.80
2023-01-21T06:30:56.047Z,64.47
2023-01-21T06:33:22.599Z,53.47
2023-01-21T06:35:49.024Z,50.13
2023-01-21T06:38:19.000Z,52.63
2023-01-21T06:40:45.434Z,43.73
2023-01-21T06:43:11.990Z,40.13
2023-01-21T06:45:44.122Z,42.37
2023-01-21T06:48:10.517Z,41.70
2023-01-21T06:50:36.920Z,40.43
2023-01-21T06:53:03.531Z,40.10
2023-01-21T06:55:29.948Z,43.30
2023-01-21T06:57:57.481Z,39.63
2023-01-21T07:00:24.401Z,39.47
2023-01-21T07:02:55.980Z,41.47
2023-01-21T07:05:23.243Z,39.97
2023-01-21T07:07:49.569Z,39.73
2023-01-21T07:10:16.860Z,41.87
2023-01-21T07:12:43.853Z,39.53
2023-01-21T07:15:10.348Z,41.17
2023-01-21T07:17:36.979Z,37.33
2023-01-21T07:20:05.012Z,41.03
2023-01-21T07:22:33.951Z,37.00
2023-01-21T07:25:01.513Z,37.23
2023-01-21T07:27:27.946Z,35.43
2023-01-21T07:29:54.472Z,35.87
2023-01-21T07:32:21.643Z,35.00
2023-01-21T07:34:48.077Z,37.57
2023-01-21T07:37:14.791Z,35.33
2023-01-21T07:39:41.279Z,35.73
2023-01-21T07:42:09.059Z,34.53
2023-01-21T07:44:35.498Z,36.83
2023-01-21T07:47:02.065Z,37.93
2023-01-21T07:49:28.452Z,38.83
2023-01-21T07:51:58.087Z,36.50
2023-01-21T07:54:24.734Z,33.03
2023-01-21T07:56:51.085Z,34.37
2023-01-21T07:59:17.685Z,36.87
2023-01-21T08:01:45.467Z,33.80
2023-01-21T08:04:12.102Z,37.47
2023-01-21T08:06:41.184Z,35.43
2023-01-21T08:09:09.613Z,33.17
2023-01-21T08:11:36.048Z,34.07
2023-01-21T08:14:02.449Z,35.13
2023-01-21T08:16:29.009Z,34.63
2023-01-21T08:18:55.396Z,34.33
2023-01-21T08:21:22.039Z,39.10
2023-01-21T08:23:48.546Z,35.67
2023-01-21T08:26:15.225Z,34.73
2023-01-21T08:28:44.099Z,34.80
2023-01-21T08:31:12.525Z,39.37
2023-01-21T08:33:39.515Z,33.17
2023-01-21T08:36:07.608Z,35.53
2023-01-21T08:38:35.417Z,34.67
2023-01-21T08:41:01.974Z,33.87
2023-01-21T08:43:28.464Z,33.70
2023-01-21T08:46:01.633Z,39.83
2023-01-21T08:48:29.224Z,40.97
2023-01-21T08:51:00.151Z,39.53
2023-01-21T08:53:26.704Z,38.73
2023-01-21T08:55:53.130Z,43.70
2023-01-21T08:58:19.608Z,38.90
2023-01-21T09:00:46.095Z,33.47
2023-01-21T09:03:14.322Z,34.33
2023-01-21T09:05:40.671Z,36.23
2023-01-21T09:08:07.061Z,40.43
2023-01-21T09:10:52.700Z,37.97
2023-01-21T09:13:20.175Z,39.07
2023-01-21T09:15:46.855Z,35.47
2023-01-21T09:18:13.535Z,35.93
2023-01-21T09:20:40.443Z,37.87
2023-01-21T09:23:24.591Z,39.60
2023-01-21T09:26:05.580Z,39.27
2023-01-21T09:28:34.395Z,36.77
2023-01-21T09:31:03.107Z,36.87
2023-01-21T09:33:30.568Z,40.37
2023-01-21T09:36:01.638Z,36.73
2023-01-21T09:38:29.179Z,34.90
2023-01-21T09:40:57.515Z,38.33
2023-01-21T09:43:27.621Z,38.90
2023-01-21T09:45:56.321Z,38.07
2023-01-21T09:48:32.852Z,40.93
2023-01-21T09:51:03.287Z,35.33
2023-01-21T09:53:38.220Z,37.80
2023-01-21T09:56:07.284Z,37.27
2023-01-21T09:58:46.818Z,38.00
2023-01-21T10:01:24.520Z,36.10
2023-01-21T10:03:56.842Z,37.13
2023-01-21T10:06:28.512Z,38.70
2023-01-21T10:09:21.291Z,35.80
2023-01-21T10:12:11.044Z,34.83
2023-01-21T10:14:46.351Z,34.43
2023-01-21T10:17:18.585Z,36.37
2023-01-21T10:19:54.761Z,39.97
2023-01-21T10:22:25.473Z,35.57
2023-01-21T10:24:55.437Z,33.00
2023-01-21T10:27:22.523Z,32.57
2023-01-21T10:29:53.058Z,35.93
2023-01-21T10:32:25.923Z,31.40
2023-01-21T10:34:54.130Z,32.13
2023-01-21T10:37:27.831Z,32.37
2023-01-21T10:40:12.519Z,29.67
2023-01-21T10:42:59.642Z,33.10
2023-01-21T10:45:45.347Z,30.97
2023-01-21T10:48:23.463Z,33.23
2023-01-21T10:50:56.935Z,34.47
2023-01-21T10:54:08.419Z,29.27
2023-01-21T10:57:12.725Z,33.03
2023-01-21T10:59:40.436Z,33.73
2023-01-21T11:02:12.777Z,33.00
2023-01-21T11:04:40.812Z,32.57
2023-01-21T11:07:13.246Z,32.47
2023-01-21T11:09:42.052Z,29.50
2023-01-21T11:12:10.404Z,30.30
2023-01-21T11:14:37.446Z,31.50
2023-01-21T11:17:05.909Z,30.03
2023-01-21T11:19:32.528Z,27.97
2023-01-21T11:22:18.110Z,29.47
2023-01-21T11:24:49.953Z,29.57
2023-01-21T11:27:23.101Z,29.87
2023-01-21T11:29:50.440Z,29.40
2023-01-21T11:32:20.440Z,31.23
2023-01-21T11:34:48.790Z,31.20
2023-01-21T11:37:26.389Z,30.60
2023-01-21T11:39:58.026Z,31.53
2023-01-21T11:42:24.916Z,33.57
2023-01-21T11:44:57.968Z,30.53
2023-01-21T11:47:38.942Z,34.57
2023-01-21T11:50:12.209Z,31.50
2023-01-21T11:52:38.724Z,35.33
2023-01-21T11:55:17.684Z,31.80
2023-01-21T11:57:49.315Z,35.50
2023-01-21T12:00:21.142Z,29.23
2023-01-21T12:02:54.691Z,28.70
2023-01-21T12:05:40.500Z,30.80
2023-01-21T12:08:07.526Z,32.77
2023-01-21T12:10:42.877Z,28.13
2023-01-21T12:13:20.141Z,29.40
2023-01-21T12:16:15.209Z,31.23
2023-01-21T12:18:59.602Z,26.67
2023-01-21T12:22:00.910Z,27.17
2023-01-21T12:24:47.261Z,29.30
2023-01-21T12:27:32.397Z,26.70
2023-01-21T12:30:08.340Z,33.90
2023-01-21T12:32:40.188Z,30.90
2023-01-21T12:35:11.722Z,28.27
2023-01-21T12:37:46.795Z,29.73
2023-01-21T12:40:17.984Z,30.17
2023-01-21T12:42:49.084Z,32.23
2023-01-21T12:45:29.312Z,29.27
2023-01-21T12:48:27.523Z,41.13
2023-01-21T12:50:59.509Z,42.77
2023-01-21T12:53:48.446Z,31.90
2023-01-21T12:56:23.689Z,28.43
2023-01-21T12:58:57.455Z,27.50
2023-01-21T13:01:44.586Z,28.97
2023-01-21T13:04:42.066Z,29.60
2023-01-21T13:07:29.753Z,27.87
2023-01-21T13:10:03.303Z,33.53
2023-01-21T13:12:31.474Z,30.93
2023-01-21T13:15:06.220Z,29.93
2023-01-21T13:17:34.321Z,31.40
2023-01-21T13:20:00.950Z,28.70
2023-01-21T13:22:51.777Z,25.97
2023-01-21T13:25:41.609Z,31.17
2023-01-21T13:28:16.740Z,28.43
2023-01-21T13:31:03.112Z,32.23
2023-01-21T13:33:48.678Z,31.60
2023-01-21T13:36:26.815Z,30.93
2023-01-21T13:39:15.166Z,31.17
2023-01-21T13:41:44.403Z,34.17
2023-01-21T13:44:52.371Z,29.63
2023-01-21T13:47:50.809Z,27.47
2023-01-21T13:50:26.139Z,33.20
2023-01-21T13:53:18.943Z,35.20
2023-01-21T13:56:16.987Z,35.70
2023-01-21T13:58:59.095Z,36.83
2023-01-21T14:01:33.784Z,36.97
2023-01-21T14:04:15.631Z,40.73
2023-01-21T14:06:53.271Z,44.97
2023-01-21T14:09:24.729Z,40.83
2023-01-21T14:11:58.946Z,37.97
2023-01-21T14:14:51.348Z,37.47
2023-01-21T14:17:43.336Z,41.03
2023-01-21T14:20:28.234Z,40.87
2023-01-21T14:23:16.437Z,45.43
2023-01-21T14:26:03.772Z,40.90
2023-01-21T14:29:09.649Z,37.90
2023-01-21T14:31:41.483Z,49.97
2023-01-21T14:34:25.256Z,39.00
2023-01-21T14:37:02.891Z,34.70
2023-01-21T14:39:41.361Z,41.77
2023-01-21T14:42:10.584Z,36.03
2023-01-21T14:44:45.321Z,36.50
2023-01-21T14:47:19.814Z,35.00
2023-01-21T14:49:49.173Z,36.13
2023-01-21T14:52:18.061Z,41.17
2023-01-21T14:54:45.988Z,39.07
2023-01-21T14:57:36.043Z,38.80
2023-01-21T15:00:22.662Z,43.10
2023-01-21T15:03:16.564Z,39.17
2023-01-21T15:05:44.538Z,44.50
2023-01-21T15:08:25.234Z,45.03
2023-01-21T15:11:28.657Z,37.97
2023-01-21T15:14:19.896Z,37.00
2023-01-21T15:16:47.034Z,36.37
2023-01-21T15:19:14.720Z,35.23
2023-01-21T15:21:41.096Z,33.13
2023-01-21T15:24:19.867Z,33.90
2023-01-21T15:27:11.170Z,31.07
2023-01-21T15:29:39.097Z,34.37
2023-01-21T15:32:18.849Z,29.23
2023-01-21T15:34:47.990Z,33.77
2023-01-21T15:37:20.313Z,38.23
2023-01-21T15:39:48.311Z,34.40
2023-01-21T15:42:31.796Z,42.57
2023-01-21T15:45:40.852Z,31.93
2023-01-21T15:48:40.187Z,31.00
2023-01-21T15:51:32.782Z,32.30
2023-01-21T15:54:23.122Z,30.93
2023-01-21T15:57:22.132Z,30.67
2023-01-21T15:59:55.916Z,29.00
2023-01-21T16:02:28.057Z,27.77
2023-01-21T16:05:17.269Z,26.67
2023-01-21T16:08:04.491Z,24.37
2023-01-21T16:10:58.904Z,23.40
2023-01-21T16:13:47.791Z,25.83
2023-01-21T16:16:46.975Z,25.40
2023-01-21T16:19:20.115Z,21.53
2023-01-21T16:21:50.366Z,27.53
2023-01-21T16:24:19.042Z,21.30
2023-01-21T16:26:45.482Z,23.00
2023-01-21T16:29:14.097Z,19.67
2023-01-21T16:31:51.713Z,18.33
2023-01-21T16:34:40.932Z,19.37
2023-01-21T16:37:15.845Z,18.97
2023-01-21T16:39:43.093Z,22.00
2023-01-21T16:42:36.699Z,18.40
2023-01-21T16:45:16.587Z,14.90
2023-01-21T16:47:43.977Z,20.03
2023-01-21T16:50:18.584Z,14.27
2023-01-21T16:52:45.241Z,18.03
2023-01-21T16:55:19.903Z,14.97
2023-01-21T16:57:51.717Z,16.30
2023-01-21T17:00:23.989Z,18.87
2023-01-21T17:02:50.791Z,34.10
2023-01-21T17:05:17.585Z,68.57
2023-01-21T17:07:47.421Z,62.20
2023-01-21T17:10:37.722Z,75.20
2023-01-21T17:13:15.398Z,43.30
2023-01-21T17:16:03.177Z,30.80
2023-01-21T17:18:37.510Z,52.07
2023-01-21T17:21:11.366Z,79.77
2023-01-21T17:24:03.505Z,60.70
2023-01-21T17:26:33.242Z,27.60
2023-01-21T17:29:18.616Z,29.40
2023-01-21T17:31:54.974Z,29.77
2023-01-21T17:34:26.657Z,50.97
2023-01-21T17:36:54.373Z,63.47
2023-01-21T17:39:47.337Z,39.57
2023-01-21T17:42:25.398Z,39.10
2023-01-21T17:44:58.208Z,32.23
2023-01-21T17:47:34.502Z,28.80
2023-01-21T17:50:22.463Z,61.47
2023-01-21T17:52:54.738Z,39.70
2023-01-21T17:55:34.341Z,20.27
2023-01-21T17:58:05.547Z,25.93
2023-01-21T18:00:45.814Z,18.23
2023-01-21T18:03:12.758Z,29.40
2023-01-21T18:05:40.210Z,74.67
2023-01-21T18:08:13.412Z,37.93
2023-01-21T18:10:40.441Z,12.00
2023-01-21T18:13:07.138Z,47.67
2023-01-21T18:15:34.062Z,25.80
2023-01-21T18:18:01.992Z,11.97
2023-01-21T18:20:29.763Z,21.63
2023-01-21T18:22:57.445Z,44.47
2023-01-21T18:25:26.116Z,18.90
2023-01-21T18:27:55.478Z,20.37
2023-01-21T18:30:24.843Z,11.67
2023-01-21T18:32:52.286Z,9.70
2023-01-21T18:35:21.590Z,9.83
2023-01-21T18:37:48.408Z,10.83
2023-01-21T18:40:21.627Z,7.63
2023-01-21T18:42:55.268Z,11.60
2023-01-21T18:45:25.459Z,8.70
2023-01-21T18:47:52.656Z,8.63
2023-01-21T18:50:24.021Z,12.57
2023-01-21T18:52:50.751Z,7.80
2023-01-21T18:55:18.792Z,9.30
2023-01-21T18:57:47.478Z,21.67
2023-01-21T19:00:17.629Z,21.23
2023-01-21T19:02:44.669Z,9.67
2023-01-21T19:05:11.233Z,11.90
2023-01-21T19:07:38.192Z,11.00
2023-01-21T19:10:05.143Z,13.47
2023-01-21T19:12:31.596Z,9.10
2023-01-21T19:14:58.020Z,8.77
2023-01-21T19:17:29.898Z,12.77
2023-01-21T19:19:56.974Z,11.63
2023-01-21T19:22:23.960Z,8.80
2023-01-21T19:24:51.006Z,9.47
2023-01-21T19:27:25.229Z,9.60
2023-01-21T19:29:51.654Z,10.63
2023-01-21T19:32:18.199Z,8.40
2023-01-21T19:34:44.861Z,9.10
2023-01-21T19:37:16.111Z,9.20
2023-01-21T19:39:42.644Z,8.27
2023-01-21T19:42:13.771Z,9.33
2023-01-21T19:44:40.704Z,7.00
2023-01-21T19:47:17.469Z,10.13
2023-01-21T19:49:44.459Z,8.43
2023-01-21T19:52:13.777Z,6.70
2023-01-21T19:54:40.334Z,8.67
2023-01-21T19:57:14.722Z,9.70
2023-01-21T19:59:43.013Z,8.13
2023-01-21T20:02:12.992Z,10.17
2023-01-21T20:04:39.547Z,7.23
2023-01-21T20:07:07.067Z,7.70
2023-01-21T20:09:33.485Z,7.83
2023-01-21T20:12:02.070Z,11.20
2023-01-21T20:14:30.601Z,8.50
2023-01-21T20:16:57.082Z,6.97
2023-01-21T20:19:23.561Z,7.17
2023-01-21T20:22:01.354Z,8.33
2023-01-21T20:24:30.458Z,7.57
2023-01-21T20:26:57.951Z,12.10
2023-01-21T20:29:26.560Z,8.70
2023-01-21T20:31:54.308Z,8.00
2023-01-21T20:34:20.979Z,8.03
2023-01-21T20:36:49.606Z,8.43
2023-01-21T20:39:16.162Z,11.43
2023-01-21T20:41:43.412Z,11.40
2023-01-21T20:44:10.471Z,9.97
2023-01-21T20:46:37.003Z,10.60
2023-01-21T20:49:03.485Z,10.07
2023-01-21T20:51:30.029Z,10.53
2023-01-21T20:53:56.572Z,11.57
2023-01-21T20:56:31.234Z,12.20
2023-01-21T20:58:58.601Z,14.13
2023-01-21T21:01:26.704Z,11.83
2023-01-21T21:03:53.257Z,10.03
2023-01-21T21:06:21.679Z,9.30
2023-01-21T21:08:49.539Z,9.87
2023-01-21T21:11:16.898Z,12.10
2023-01-21T21:13:46.390Z,13.50
2023-01-21T21:16:23.170Z,13.33
2023-01-21T21:18:50.250Z,14.23
2023-01-21T21:21:18.052Z,9.53
2023-01-21T21:23:47.472Z,13.60
2023-01-21T21:26:22.980Z,8.03
2023-01-21T21:28:50.216Z,11.30
2023-01-21T21:31:17.549Z,12.40
2023-01-21T21:33:44.236Z,16.20
2023-01-21T21:36:13.724Z,12.27
2023-01-21T21:38:40.308Z,12.23
2023-01-21T21:41:25.540Z,14.27
2023-01-21T21:43:52.093Z,13.43
2023-01-21T21:46:37.144Z,14.37
2023-01-21T21:49:03.591Z,11.43
2023-01-21T21:51:31.829Z,15.57
2023-01-21T21:53:58.250Z,15.53
2023-01-21T21:56:24.712Z,15.53
2023-01-21T21:58:52.031Z,15.40
2023-01-21T22:01:23.758Z,13.33
2023-01-21T22:03:50.788Z,11.20
2023-01-21T22:06:19.036Z,14.07
2023-01-21T22:08:45.696Z,13.90
2023-01-21T22:11:19.910Z,11.40
2023-01-21T22:13:50.085Z,12.43
2023-01-21T22:16:25.335Z,16.30
2023-01-21T22:18:52.131Z,18.17
2023-01-21T22:21:27.644Z,14.70
2023-01-21T22:23:54.852Z,13.40
2023-01-21T22:26:26.210Z,13.20
2023-01-21T22:28:53.664Z,11.17
2023-01-21T22:31:28.473Z,10.17
2023-01-21T22:33:56.103Z,13.23
2023-01-21T22:36:24.513Z,13.53
2023-01-21T22:38:52.191Z,13.27
2023-01-21T22:41:20.492Z,12.37
2023-01-21T22:43:48.673Z,29.50
2023-01-21T22:46:17.625Z,54.53
2023-01-21T22:48:44.302Z,26.60
2023-01-21T22:51:15.946Z,16.90
2023-01-21T22:53:45.478Z,16.10
2023-01-21T22:56:13.640Z,20.13
2023-01-21T22:58:40.374Z,14.70
2023-01-21T23:01:07.532Z,16.17
2023-01-21T23:03:34.515Z,14.70
2023-01-21T23:06:06.357Z,23.67
2023-01-21T23:08:33.080Z,18.33
2023-01-21T23:11:01.836Z,15.37
2023-01-21T23:13:28.336Z,21.67
2023-01-21T23:15:55.293Z,28.10
2023-01-21T23:18:22.313Z,18.43
2023-01-21T23:20:48.908Z,14.80
2023-01-21T23:23:15.445Z,14.10
2023-01-21T23:25:43.256Z,15.50
2023-01-21T23:28:15.018Z,13.27
2023-01-21T23:30:44.292Z,13.37
2023-01-21T23:33:11.932Z,12.97
2023-01-21T23:35:38.597Z,13.70
2023-01-21T23:38:05.125Z,12.77
2023-01-21T23:40:31.595Z,11.00
2023-01-21T23:42:58.106Z,11.97
2023-01-21T23:45:24.645Z,12.30
2023-01-21T23:47:51.402Z,10.77
2023-01-21T23:50:18.274Z,13.73
2023-01-21T23:52:44.972Z,14.80
2023-01-21T23:55:11.981Z,13.10
2023-01-21T23:57:38.465Z,11.17
